sensor_id;sensor_type;location;lat;lon;timestamp;temperature;humidity
13052;DHT22;6592;47.484;9.726;2022-07-23T00:01:28;24.40;99.90
13052;DHT22;6592;47.484;9.726;2022-07-23T00:03:57;24.30;99.90
13052;DHT22;6592;47.484;9.726;2022-07-23T00:06:25;24.30;99.90
13052;DHT22;6592;47.484;9.726;2022-07-23T00:08:54;24.20;99.90
13052;DHT22;6592;47.484;9.726;2022-07-23T00:11:23;24.20;99.90
13052;DHT22;6592;47.484;9.726;2022-07-23T00:13:51;24.00;99.90
13052;DHT22;6592;47.484;9.726;2022-07-23T00:16:21;24.10;99.90
13052;DHT22;6592;47.484;9.726;2022-07-23T00:18:51;24.10;99.90
13052;DHT22;6592;47.484;9.726;2022-07-23T00:21:19;24.10;99.90
13052;DHT22;6592;47.484;9.726;2022-07-23T00:23:47;24.10;99.90
13052;DHT22;6592;47.484;9.726;2022-07-23T00:26:16;24.10;99.90
13052;DHT22;6592;47.484;9.726;2022-07-23T00:28:44;23.90;99.90
13052;DHT22;6592;47.484;9.726;2022-07-23T00:31:12;23.60;99.90
13052;DHT22;6592;47.484;9.726;2022-07-23T00:33:41;23.30;99.90
13052;DHT22;6592;47.484;9.726;2022-07-23T00:36:10;23.00;99.90
13052;DHT22;6592;47.484;9.726;2022-07-23T00:38:40;22.80;99.90
13052;DHT22;6592;47.484;9.726;2022-07-23T00:41:08;22.60;99.90
13052;DHT22;6592;47.484;9.726;2022-07-23T00:43:36;22.30;99.90
13052;DHT22;6592;47.484;9.726;2022-07-23T00:46:05;22.00;99.90
13052;DHT22;6592;47.484;9.726;2022-07-23T00:48:36;21.80;99.90
13052;DHT22;6592;47.484;9.726;2022-07-23T00:51:04;21.50;99.90
13052;DHT22;6592;47.484;9.726;2022-07-23T00:53:36;21.40;99.90
13052;DHT22;6592;47.484;9.726;2022-07-23T00:56:05;21.30;99.90
13052;DHT22;6592;47.484;9.726;2022-07-23T00:58:34;21.10;99.90
13052;DHT22;6592;47.484;9.726;2022-07-23T01:01:03;20.90;99.90
13052;DHT22;6592;47.484;9.726;2022-07-23T01:03:32;20.70;99.90
13052;DHT22;6592;47.484;9.726;2022-07-23T01:06:03;20.40;99.90
13052;DHT22;6592;47.484;9.726;2022-07-23T01:08:32;20.20;99.90
13052;DHT22;6592;47.484;9.726;2022-07-23T01:11:04;20.00;99.90
13052;DHT22;6592;47.484;9.726;2022-07-23T01:13:33;19.80;99.90
13052;DHT22;6592;47.484;9.726;2022-07-23T01:16:03;19.70;99.90
13052;DHT22;6592;47.484;9.726;2022-07-23T01:18:36;19.60;99.90
13052;DHT22;6592;47.484;9.726;2022-07-23T01:21:04;19.60;99.90
13052;DHT22;6592;47.484;9.726;2022-07-23T01:23:34;19.50;99.90
13052;DHT22;6592;47.484;9.726;2022-07-23T01:26:03;19.60;99.90
13052;DHT22;6592;47.484;9.726;2022-07-23T01:28:32;19.70;99.90
13052;DHT22;6592;47.484;9.726;2022-07-23T01:31:01;19.80;99.90
13052;DHT22;6592;47.484;9.726;2022-07-23T01:33:30;20.00;99.90
13052;DHT22;6592;47.484;9.726;2022-07-23T01:35:58;20.10;99.90
13052;DHT22;6592;47.484;9.726;2022-07-23T01:38:27;20.30;99.90
13052;DHT22;6592;47.484;9.726;2022-07-23T01:40:59;20.40;99.90
13052;DHT22;6592;47.484;9.726;2022-07-23T01:43:31;20.50;99.90
13052;DHT22;6592;47.484;9.726;2022-07-23T01:46:00;20.50;99.90
13052;DHT22;6592;47.484;9.726;2022-07-23T01:48:28;20.60;99.90
13052;DHT22;6592;47.484;9.726;2022-07-23T01:50:59;20.60;99.90
13052;DHT22;6592;47.484;9.726;2022-07-23T01:53:28;20.60;99.90
13052;DHT22;6592;47.484;9.726;2022-07-23T01:55:59;20.50;99.90
13052;DHT22;6592;47.484;9.726;2022-07-23T01:58:28;20.40;99.90
13052;DHT22;6592;47.484;9.726;2022-07-23T02:00:56;20.40;99.90
13052;DHT22;6592;47.484;9.726;2022-07-23T02:03:24;20.50;99.90
13052;DHT22;6592;47.484;9.726;2022-07-23T02:05:52;20.50;99.90
13052;DHT22;6592;47.484;9.726;2022-07-23T02:08:20;20.60;99.90
13052;DHT22;6592;47.484;9.726;2022-07-23T02:10:50;20.60;99.90
13052;DHT22;6592;47.484;9.726;2022-07-23T02:13:20;20.60;99.90
13052;DHT22;6592;47.484;9.726;2022-07-23T02:15:48;20.60;99.90
13052;DHT22;6592;47.484;9.726;2022-07-23T02:18:16;20.60;99.90
13052;DHT22;6592;47.484;9.726;2022-07-23T02:20:45;20.60;99.90
13052;DHT22;6592;47.484;9.726;2022-07-23T02:23:13;20.60;99.90
13052;DHT22;6592;47.484;9.726;2022-07-23T02:25:43;20.70;99.90
13052;DHT22;6592;47.484;9.726;2022-07-23T02:28:16;20.70;99.90
13052;DHT22;6592;47.484;9.726;2022-07-23T02:30:46;20.70;99.90
13052;DHT22;6592;47.484;9.726;2022-07-23T02:33:14;20.70;99.90
13052;DHT22;6592;47.484;9.726;2022-07-23T02:35:43;20.70;99.90
13052;DHT22;6592;47.484;9.726;2022-07-23T02:38:12;20.60;99.90
13052;DHT22;6592;47.484;9.726;2022-07-23T02:40:41;20.60;99.90
13052;DHT22;6592;47.484;9.726;2022-07-23T02:43:09;20.60;99.90
13052;DHT22;6592;47.484;9.726;2022-07-23T02:45:39;20.60;99.90
13052;DHT22;6592;47.484;9.726;2022-07-23T02:48:08;20.60;99.90
13052;DHT22;6592;47.484;9.726;2022-07-23T02:50:39;20.60;99.90
13052;DHT22;6592;47.484;9.726;2022-07-23T02:53:07;20.60;99.90
13052;DHT22;6592;47.484;9.726;2022-07-23T02:55:37;20.60;99.90
13052;DHT22;6592;47.484;9.726;2022-07-23T02:58:05;20.60;99.90
13052;DHT22;6592;47.484;9.726;2022-07-23T03:00:34;20.60;99.90
13052;DHT22;6592;47.484;9.726;2022-07-23T03:03:05;20.60;99.90
13052;DHT22;6592;47.484;9.726;2022-07-23T03:05:36;20.60;99.90
13052;DHT22;6592;47.484;9.726;2022-07-23T03:08:05;20.70;99.90
13052;DHT22;6592;47.484;9.726;2022-07-23T03:10:33;20.70;99.90
13052;DHT22;6592;47.484;9.726;2022-07-23T03:13:01;20.70;99.90
13052;DHT22;6592;47.484;9.726;2022-07-23T03:15:30;20.70;99.90
13052;DHT22;6592;47.484;9.726;2022-07-23T03:17:58;20.70;99.90
13052;DHT22;6592;47.484;9.726;2022-07-23T03:20:26;20.70;99.90
13052;DHT22;6592;47.484;9.726;2022-07-23T03:22:56;20.80;99.90
13052;DHT22;6592;47.484;9.726;2022-07-23T03:25:24;20.70;99.90
13052;DHT22;6592;47.484;9.726;2022-07-23T03:27:52;20.80;99.90
13052;DHT22;6592;47.484;9.726;2022-07-23T03:30:20;20.70;99.90
13052;DHT22;6592;47.484;9.726;2022-07-23T03:32:48;20.80;99.90
13052;DHT22;6592;47.484;9.726;2022-07-23T03:35:18;20.80;99.90
13052;DHT22;6592;47.484;9.726;2022-07-23T03:37:46;20.80;99.90
13052;DHT22;6592;47.484;9.726;2022-07-23T03:40:19;20.80;99.90
13052;DHT22;6592;47.484;9.726;2022-07-23T03:42:47;20.80;99.90
13052;DHT22;6592;47.484;9.726;2022-07-23T03:45:16;20.80;99.90
13052;DHT22;6592;47.484;9.726;2022-07-23T03:47:44;20.90;99.90
13052;DHT22;6592;47.484;9.726;2022-07-23T03:50:13;21.00;99.90
13052;DHT22;6592;47.484;9.726;2022-07-23T03:52:41;21.20;99.90
13052;DHT22;6592;47.484;9.726;2022-07-23T03:55:09;21.20;99.90
13052;DHT22;6592;47.484;9.726;2022-07-23T03:57:40;21.30;99.90
13052;DHT22;6592;47.484;9.726;2022-07-23T04:00:10;21.30;99.90
13052;DHT22;6592;47.484;9.726;2022-07-23T04:02:39;21.30;99.90
13052;DHT22;6592;47.484;9.726;2022-07-23T04:05:08;21.40;99.90
13052;DHT22;6592;47.484;9.726;2022-07-23T04:07:37;21.40;99.90
13052;DHT22;6592;47.484;9.726;2022-07-23T04:10:06;21.40;99.90
13052;DHT22;6592;47.484;9.726;2022-07-23T04:12:36;21.60;99.90
13052;DHT22;6592;47.484;9.726;2022-07-23T04:15:08;21.50;99.90
13052;DHT22;6592;47.484;9.726;2022-07-23T04:17:37;21.50;99.90
13052;DHT22;6592;47.484;9.726;2022-07-23T04:20:05;21.50;99.90
13052;DHT22;6592;47.484;9.726;2022-07-23T04:22:34;21.50;99.90
13052;DHT22;6592;47.484;9.726;2022-07-23T04:25:02;21.60;99.90
13052;DHT22;6592;47.484;9.726;2022-07-23T04:27:31;21.50;99.90
13052;DHT22;6592;47.484;9.726;2022-07-23T04:30:00;21.50;99.90
13052;DHT22;6592;47.484;9.726;2022-07-23T04:32:31;21.50;99.90
13052;DHT22;6592;47.484;9.726;2022-07-23T04:34:59;21.40;99.90
13052;DHT22;6592;47.484;9.726;2022-07-23T04:37:27;21.40;99.90
13052;DHT22;6592;47.484;9.726;2022-07-23T04:39:55;21.40;99.90
13052;DHT22;6592;47.484;9.726;2022-07-23T04:42:23;21.40;99.90
13052;DHT22;6592;47.484;9.726;2022-07-23T04:44:51;21.30;99.90
13052;DHT22;6592;47.484;9.726;2022-07-23T04:47:20;21.30;99.90
13052;DHT22;6592;47.484;9.726;2022-07-23T04:49:55;21.30;99.90
13052;DHT22;6592;47.484;9.726;2022-07-23T04:52:23;21.30;99.90
13052;DHT22;6592;47.484;9.726;2022-07-23T04:54:52;21.30;99.90
13052;DHT22;6592;47.484;9.726;2022-07-23T04:57:20;21.20;99.90
13052;DHT22;6592;47.484;9.726;2022-07-23T04:59:48;21.20;99.90
13052;DHT22;6592;47.484;9.726;2022-07-23T05:02:16;21.30;99.90
13052;DHT22;6592;47.484;9.726;2022-07-23T05:04:44;21.30;99.90
13052;DHT22;6592;47.484;9.726;2022-07-23T05:07:14;21.40;99.90
13052;DHT22;6592;47.484;9.726;2022-07-23T05:09:42;21.30;99.90
13052;DHT22;6592;47.484;9.726;2022-07-23T05:12:10;21.30;99.90
13052;DHT22;6592;47.484;9.726;2022-07-23T05:14:38;21.20;99.90
13052;DHT22;6592;47.484;9.726;2022-07-23T05:17:07;21.00;99.90
13052;DHT22;6592;47.484;9.726;2022-07-23T05:19:35;21.00;99.90
13052;DHT22;6592;47.484;9.726;2022-07-23T05:22:03;21.00;99.90
13052;DHT22;6592;47.484;9.726;2022-07-23T05:24:33;21.00;99.90
13052;DHT22;6592;47.484;9.726;2022-07-23T05:27:01;21.10;99.90
13052;DHT22;6592;47.484;9.726;2022-07-23T05:29:29;21.20;99.90
13052;DHT22;6592;47.484;9.726;2022-07-23T05:31:57;21.30;99.90
13052;DHT22;6592;47.484;9.726;2022-07-23T05:34:25;21.40;99.90
13052;DHT22;6592;47.484;9.726;2022-07-23T05:36:53;21.40;99.90
13052;DHT22;6592;47.484;9.726;2022-07-23T05:39:21;21.40;99.90
13052;DHT22;6592;47.484;9.726;2022-07-23T05:41:50;21.50;99.90
13052;DHT22;6592;47.484;9.726;2022-07-23T05:44:18;21.60;99.90
13052;DHT22;6592;47.484;9.726;2022-07-23T05:46:47;21.70;99.90
13052;DHT22;6592;47.484;9.726;2022-07-23T05:49:15;21.70;99.90
13052;DHT22;6592;47.484;9.726;2022-07-23T05:51:43;21.80;99.90
13052;DHT22;6592;47.484;9.726;2022-07-23T05:54:12;21.80;99.90
13052;DHT22;6592;47.484;9.726;2022-07-23T05:56:40;21.80;99.90
13052;DHT22;6592;47.484;9.726;2022-07-23T05:59:09;21.80;99.90
13052;DHT22;6592;47.484;9.726;2022-07-23T06:01:38;21.90;99.90
13052;DHT22;6592;47.484;9.726;2022-07-23T06:04:07;22.00;99.90
13052;DHT22;6592;47.484;9.726;2022-07-23T06:06:35;22.10;99.90
13052;DHT22;6592;47.484;9.726;2022-07-23T06:09:03;22.30;99.90
13052;DHT22;6592;47.484;9.726;2022-07-23T06:11:31;22.60;99.90
13052;DHT22;6592;47.484;9.726;2022-07-23T06:13:59;22.80;99.90
13052;DHT22;6592;47.484;9.726;2022-07-23T06:16:29;22.90;99.90
13052;DHT22;6592;47.484;9.726;2022-07-23T06:18:57;23.00;99.90
13052;DHT22;6592;47.484;9.726;2022-07-23T06:21:26;23.00;99.90
13052;DHT22;6592;47.484;9.726;2022-07-23T06:24:14;23.00;99.90
13052;DHT22;6592;47.484;9.726;2022-07-23T06:26:42;22.90;99.90
13052;DHT22;6592;47.484;9.726;2022-07-23T06:29:10;22.80;99.90
13052;DHT22;6592;47.484;9.726;2022-07-23T06:31:39;22.70;99.90
13052;DHT22;6592;47.484;9.726;2022-07-23T06:34:08;22.70;99.90
13052;DHT22;6592;47.484;9.726;2022-07-23T06:36:36;22.60;99.90
13052;DHT22;6592;47.484;9.726;2022-07-23T06:39:04;22.60;99.90
13052;DHT22;6592;47.484;9.726;2022-07-23T06:41:34;22.60;99.90
13052;DHT22;6592;47.484;9.726;2022-07-23T06:44:02;22.60;99.90
13052;DHT22;6592;47.484;9.726;2022-07-23T06:46:30;22.60;99.90
13052;DHT22;6592;47.484;9.726;2022-07-23T06:49:00;22.60;99.90
13052;DHT22;6592;47.484;9.726;2022-07-23T06:51:29;22.70;99.90
13052;DHT22;6592;47.484;9.726;2022-07-23T06:53:57;22.70;99.90
13052;DHT22;6592;47.484;9.726;2022-07-23T06:56:25;22.80;99.90
13052;DHT22;6592;47.484;9.726;2022-07-23T06:58:53;22.90;99.90
13052;DHT22;6592;47.484;9.726;2022-07-23T07:01:21;22.80;99.90
13052;DHT22;6592;47.484;9.726;2022-07-23T07:03:49;23.00;99.90
13052;DHT22;6592;47.484;9.726;2022-07-23T07:06:19;22.90;99.90
13052;DHT22;6592;47.484;9.726;2022-07-23T07:08:48;22.80;99.90
13052;DHT22;6592;47.484;9.726;2022-07-23T07:11:18;22.70;99.90
13052;DHT22;6592;47.484;9.726;2022-07-23T07:13:46;22.60;99.90
13052;DHT22;6592;47.484;9.726;2022-07-23T07:16:14;22.60;99.90
13052;DHT22;6592;47.484;9.726;2022-07-23T07:18:42;22.60;99.90
13052;DHT22;6592;47.484;9.726;2022-07-23T07:21:11;22.50;99.90
13052;DHT22;6592;47.484;9.726;2022-07-23T07:23:40;22.50;99.90
13052;DHT22;6592;47.484;9.726;2022-07-23T07:26:08;22.50;99.90
13052;DHT22;6592;47.484;9.726;2022-07-23T07:28:37;22.50;99.90
13052;DHT22;6592;47.484;9.726;2022-07-23T07:31:05;22.60;99.90
13052;DHT22;6592;47.484;9.726;2022-07-23T07:33:33;22.60;99.90
13052;DHT22;6592;47.484;9.726;2022-07-23T07:36:01;22.60;99.90
13052;DHT22;6592;47.484;9.726;2022-07-23T07:38:29;22.60;99.90
13052;DHT22;6592;47.484;9.726;2022-07-23T07:40:59;22.60;99.90
13052;DHT22;6592;47.484;9.726;2022-07-23T07:43:27;22.60;99.90
13052;DHT22;6592;47.484;9.726;2022-07-23T07:45:55;22.60;99.90
13052;DHT22;6592;47.484;9.726;2022-07-23T07:48:23;22.50;99.90
13052;DHT22;6592;47.484;9.726;2022-07-23T07:50:51;22.50;99.90
13052;DHT22;6592;47.484;9.726;2022-07-23T07:53:20;22.40;99.90
13052;DHT22;6592;47.484;9.726;2022-07-23T07:55:48;22.30;99.90
13052;DHT22;6592;47.484;9.726;2022-07-23T07:58:18;22.20;99.90
13052;DHT22;6592;47.484;9.726;2022-07-23T08:00:46;22.30;99.90
13052;DHT22;6592;47.484;9.726;2022-07-23T08:03:15;22.30;99.90
13052;DHT22;6592;47.484;9.726;2022-07-23T08:05:44;22.50;99.90
13052;DHT22;6592;47.484;9.726;2022-07-23T08:08:12;22.50;99.90
13052;DHT22;6592;47.484;9.726;2022-07-23T08:10:42;22.50;99.90
13052;DHT22;6592;47.484;9.726;2022-07-23T08:13:12;22.30;99.90
13052;DHT22;6592;47.484;9.726;2022-07-23T08:15:42;22.20;99.90
13052;DHT22;6592;47.484;9.726;2022-07-23T08:18:12;22.20;99.90
13052;DHT22;6592;47.484;9.726;2022-07-23T08:20:40;22.30;99.90
13052;DHT22;6592;47.484;9.726;2022-07-23T08:23:08;22.30;99.90
13052;DHT22;6592;47.484;9.726;2022-07-23T08:25:37;22.40;99.90
13052;DHT22;6592;47.484;9.726;2022-07-23T08:28:06;22.40;99.90
13052;DHT22;6592;47.484;9.726;2022-07-23T08:30:35;22.40;99.90
13052;DHT22;6592;47.484;9.726;2022-07-23T08:33:06;22.50;99.90
13052;DHT22;6592;47.484;9.726;2022-07-23T08:35:34;22.60;99.90
13052;DHT22;6592;47.484;9.726;2022-07-23T08:38:03;22.80;99.90
13052;DHT22;6592;47.484;9.726;2022-07-23T08:40:32;23.00;99.90
13052;DHT22;6592;47.484;9.726;2022-07-23T08:43:07;23.20;99.90
13052;DHT22;6592;47.484;9.726;2022-07-23T08:45:35;23.40;99.90
13052;DHT22;6592;47.484;9.726;2022-07-23T08:48:07;23.70;99.90
13052;DHT22;6592;47.484;9.726;2022-07-23T08:50:36;23.80;99.90
13052;DHT22;6592;47.484;9.726;2022-07-23T08:53:07;23.80;99.90
13052;DHT22;6592;47.484;9.726;2022-07-23T08:55:35;23.90;99.90
13052;DHT22;6592;47.484;9.726;2022-07-23T08:58:03;24.10;99.90
13052;DHT22;6592;47.484;9.726;2022-07-23T09:00:32;24.30;99.90
13052;DHT22;6592;47.484;9.726;2022-07-23T09:03:00;24.50;99.90
13052;DHT22;6592;47.484;9.726;2022-07-23T09:05:30;24.60;99.90
13052;DHT22;6592;47.484;9.726;2022-07-23T09:08:03;24.60;99.90
13052;DHT22;6592;47.484;9.726;2022-07-23T09:10:42;24.50;99.90
13052;DHT22;6592;47.484;9.726;2022-07-23T09:13:25;24.40;99.90
13052;DHT22;6592;47.484;9.726;2022-07-23T09:15:54;24.40;99.90
13052;DHT22;6592;47.484;9.726;2022-07-23T09:18:31;24.40;99.90
13052;DHT22;6592;47.484;9.726;2022-07-23T09:21:11;24.40;99.90
13052;DHT22;6592;47.484;9.726;2022-07-23T09:23:41;24.40;99.90
13052;DHT22;6592;47.484;9.726;2022-07-23T09:26:23;24.30;99.90
13052;DHT22;6592;47.484;9.726;2022-07-23T09:28:53;24.30;99.90
13052;DHT22;6592;47.484;9.726;2022-07-23T09:31:23;24.20;99.90
13052;DHT22;6592;47.484;9.726;2022-07-23T09:34:01;24.30;99.90
13052;DHT22;6592;47.484;9.726;2022-07-23T09:36:47;24.20;99.90
13052;DHT22;6592;47.484;9.726;2022-07-23T09:39:21;24.30;99.90
13052;DHT22;6592;47.484;9.726;2022-07-23T09:41:52;24.40;99.90
13052;DHT22;6592;47.484;9.726;2022-07-23T09:44:21;24.60;99.90
13052;DHT22;6592;47.484;9.726;2022-07-23T09:46:57;24.60;99.90
13052;DHT22;6592;47.484;9.726;2022-07-23T09:49:26;24.70;99.90
13052;DHT22;6592;47.484;9.726;2022-07-23T09:51:57;24.70;99.90
13052;DHT22;6592;47.484;9.726;2022-07-23T09:54:26;24.80;99.90
13052;DHT22;6592;47.484;9.726;2022-07-23T09:56:57;24.90;99.90
13052;DHT22;6592;47.484;9.726;2022-07-23T09:59:27;25.00;99.90
13052;DHT22;6592;47.484;9.726;2022-07-23T10:01:57;25.00;99.90
13052;DHT22;6592;47.484;9.726;2022-07-23T10:04:27;25.00;99.90
13052;DHT22;6592;47.484;9.726;2022-07-23T10:06:58;25.10;99.90
13052;DHT22;6592;47.484;9.726;2022-07-23T10:09:28;25.20;99.90
13052;DHT22;6592;47.484;9.726;2022-07-23T10:12:00;25.30;99.90
13052;DHT22;6592;47.484;9.726;2022-07-23T10:14:48;25.40;99.90
13052;DHT22;6592;47.484;9.726;2022-07-23T10:17:17;25.60;99.90
13052;DHT22;6592;47.484;9.726;2022-07-23T10:19:46;25.80;99.90
13052;DHT22;6592;47.484;9.726;2022-07-23T10:22:18;26.00;99.90
13052;DHT22;6592;47.484;9.726;2022-07-23T10:24:49;26.00;99.90
13052;DHT22;6592;47.484;9.726;2022-07-23T10:27:31;26.20;99.90
13052;DHT22;6592;47.484;9.726;2022-07-23T10:30:02;26.30;99.90
13052;DHT22;6592;47.484;9.726;2022-07-23T10:32:37;26.40;99.90
13052;DHT22;6592;47.484;9.726;2022-07-23T10:35:08;26.40;99.90
13052;DHT22;6592;47.484;9.726;2022-07-23T10:37:41;26.60;99.90
13052;DHT22;6592;47.484;9.726;2022-07-23T10:40:11;26.50;99.90
13052;DHT22;6592;47.484;9.726;2022-07-23T10:42:39;26.40;99.90
13052;DHT22;6592;47.484;9.726;2022-07-23T10:45:22;26.30;99.90
13052;DHT22;6592;47.484;9.726;2022-07-23T10:47:51;26.20;99.90
13052;DHT22;6592;47.484;9.726;2022-07-23T10:50:22;26.10;99.90
13052;DHT22;6592;47.484;9.726;2022-07-23T10:53:11;26.20;99.90
13052;DHT22;6592;47.484;9.726;2022-07-23T10:55:41;26.20;99.90
13052;DHT22;6592;47.484;9.726;2022-07-23T10:58:16;26.20;99.90
13052;DHT22;6592;47.484;9.726;2022-07-23T11:00:48;26.30;99.90
13052;DHT22;6592;47.484;9.726;2022-07-23T11:03:30;26.40;99.90
13052;DHT22;6592;47.484;9.726;2022-07-23T11:05:59;26.50;99.90
13052;DHT22;6592;47.484;9.726;2022-07-23T11:08:28;26.70;99.90
13052;DHT22;6592;47.484;9.726;2022-07-23T11:11:07;26.90;99.90
13052;DHT22;6592;47.484;9.726;2022-07-23T11:13:37;27.30;99.90
13052;DHT22;6592;47.484;9.726;2022-07-23T11:16:06;27.70;99.90
13052;DHT22;6592;47.484;9.726;2022-07-23T11:18:57;28.00;99.90
13052;DHT22;6592;47.484;9.726;2022-07-23T11:24:13;28.40;99.90
13052;DHT22;6592;47.484;9.726;2022-07-23T11:26:46;28.40;99.90
13052;DHT22;6592;47.484;9.726;2022-07-23T11:32:03;28.20;99.90
13052;DHT22;6592;47.484;9.726;2022-07-23T11:34:32;28.10;99.90
13052;DHT22;6592;47.484;9.726;2022-07-23T11:37:01;28.00;99.90
13052;DHT22;6592;47.484;9.726;2022-07-23T11:39:31;27.90;99.90
13052;DHT22;6592;47.484;9.726;2022-07-23T11:42:00;27.80;99.90
13052;DHT22;6592;47.484;9.726;2022-07-23T11:44:28;28.00;99.90
13052;DHT22;6592;47.484;9.726;2022-07-23T11:46:57;28.40;99.90
13052;DHT22;6592;47.484;9.726;2022-07-23T11:49:26;28.80;99.90
13052;DHT22;6592;47.484;9.726;2022-07-23T11:52:04;29.30;99.90
13052;DHT22;6592;47.484;9.726;2022-07-23T11:54:35;29.60;99.90
13052;DHT22;6592;47.484;9.726;2022-07-23T11:57:06;29.90;99.90
13052;DHT22;6592;47.484;9.726;2022-07-23T11:59:34;30.20;99.90
13052;DHT22;6592;47.484;9.726;2022-07-23T12:02:03;30.20;99.90
13052;DHT22;6592;47.484;9.726;2022-07-23T12:04:38;29.90;99.90
13052;DHT22;6592;47.484;9.726;2022-07-23T12:09:50;29.90;99.90
13052;DHT22;6592;47.484;9.726;2022-07-23T12:12:18;29.60;99.90
13052;DHT22;6592;47.484;9.726;2022-07-23T12:14:47;29.40;99.90
13052;DHT22;6592;47.484;9.726;2022-07-23T12:17:15;29.20;99.90
13052;DHT22;6592;47.484;9.726;2022-07-23T12:19:44;29.00;99.90
13052;DHT22;6592;47.484;9.726;2022-07-23T12:22:15;28.80;99.90
13052;DHT22;6592;47.484;9.726;2022-07-23T12:25:04;28.80;99.90
13052;DHT22;6592;47.484;9.726;2022-07-23T12:27:32;28.90;99.90
13052;DHT22;6592;47.484;9.726;2022-07-23T12:30:14;29.00;99.90
13052;DHT22;6592;47.484;9.726;2022-07-23T12:32:43;29.10;99.90
13052;DHT22;6592;47.484;9.726;2022-07-23T12:35:11;29.30;99.90
13052;DHT22;6592;47.484;9.726;2022-07-23T12:37:40;29.50;99.90
13052;DHT22;6592;47.484;9.726;2022-07-23T12:40:23;29.80;99.90
13052;DHT22;6592;47.484;9.726;2022-07-23T12:42:53;29.90;99.90
13052;DHT22;6592;47.484;9.726;2022-07-23T12:45:21;30.30;99.90
13052;DHT22;6592;47.484;9.726;2022-07-23T12:47:57;30.50;99.90
13052;DHT22;6592;47.484;9.726;2022-07-23T12:50:33;30.60;99.90
13052;DHT22;6592;47.484;9.726;2022-07-23T12:53:03;30.70;99.90
13052;DHT22;6592;47.484;9.726;2022-07-23T12:55:33;30.80;99.90
13052;DHT22;6592;47.484;9.726;2022-07-23T12:58:21;30.80;99.90
13052;DHT22;6592;47.484;9.726;2022-07-23T13:01:02;30.70;99.90
13052;DHT22;6592;47.484;9.726;2022-07-23T13:03:36;30.80;99.90
13052;DHT22;6592;47.484;9.726;2022-07-23T13:06:06;31.10;99.90
13052;DHT22;6592;47.484;9.726;2022-07-23T13:08:36;31.40;99.90
13052;DHT22;6592;47.484;9.726;2022-07-23T13:11:06;31.60;99.90
13052;DHT22;6592;47.484;9.726;2022-07-23T13:13:34;31.50;99.90
13052;DHT22;6592;47.484;9.726;2022-07-23T13:16:03;31.60;99.90
13052;DHT22;6592;47.484;9.726;2022-07-23T13:18:36;31.60;99.90
13052;DHT22;6592;47.484;9.726;2022-07-23T13:21:05;31.50;99.90
13052;DHT22;6592;47.484;9.726;2022-07-23T13:23:34;31.40;99.90
13052;DHT22;6592;47.484;9.726;2022-07-23T13:26:03;31.20;99.90
13052;DHT22;6592;47.484;9.726;2022-07-23T13:28:32;31.10;99.90
13052;DHT22;6592;47.484;9.726;2022-07-23T13:31:00;31.10;99.90
13052;DHT22;6592;47.484;9.726;2022-07-23T13:33:28;31.10;99.90
13052;DHT22;6592;47.484;9.726;2022-07-23T13:35:58;31.10;99.90
13052;DHT22;6592;47.484;9.726;2022-07-23T13:38:26;31.20;99.90
13052;DHT22;6592;47.484;9.726;2022-07-23T13:40:54;31.30;99.90
13052;DHT22;6592;47.484;9.726;2022-07-23T13:43:25;31.30;99.90
13052;DHT22;6592;47.484;9.726;2022-07-23T13:46:00;31.30;99.90
13052;DHT22;6592;47.484;9.726;2022-07-23T13:48:28;31.20;99.90
13052;DHT22;6592;47.484;9.726;2022-07-23T13:50:56;31.30;99.90
13052;DHT22;6592;47.484;9.726;2022-07-23T13:53:26;31.20;99.90
13052;DHT22;6592;47.484;9.726;2022-07-23T13:55:55;31.20;99.90
13052;DHT22;6592;47.484;9.726;2022-07-23T13:58:24;31.20;99.90
13052;DHT22;6592;47.484;9.726;2022-07-23T14:00:53;31.30;99.90
13052;DHT22;6592;47.484;9.726;2022-07-23T14:03:22;31.30;99.90
13052;DHT22;6592;47.484;9.726;2022-07-23T14:05:51;31.30;99.90
13052;DHT22;6592;47.484;9.726;2022-07-23T14:08:23;31.40;99.90
13052;DHT22;6592;47.484;9.726;2022-07-23T14:10:51;31.40;99.90
13052;DHT22;6592;47.484;9.726;2022-07-23T14:13:19;31.60;99.90
13052;DHT22;6592;47.484;9.726;2022-07-23T14:15:47;31.60;99.90
13052;DHT22;6592;47.484;9.726;2022-07-23T14:18:16;31.60;99.90
13052;DHT22;6592;47.484;9.726;2022-07-23T14:20:48;31.60;99.90
13052;DHT22;6592;47.484;9.726;2022-07-23T14:23:18;31.60;99.90
13052;DHT22;6592;47.484;9.726;2022-07-23T14:25:46;31.50;99.90
13052;DHT22;6592;47.484;9.726;2022-07-23T14:28:14;31.40;99.90
13052;DHT22;6592;47.484;9.726;2022-07-23T14:30:46;31.30;99.90
13052;DHT22;6592;47.484;9.726;2022-07-23T14:33:15;31.50;99.90
13052;DHT22;6592;47.484;9.726;2022-07-23T14:35:43;31.40;99.90
13052;DHT22;6592;47.484;9.726;2022-07-23T14:38:13;31.60;99.90
13052;DHT22;6592;47.484;9.726;2022-07-23T14:40:42;31.50;99.90
13052;DHT22;6592;47.484;9.726;2022-07-23T14:43:10;31.60;99.90
13052;DHT22;6592;47.484;9.726;2022-07-23T14:45:39;31.50;99.90
13052;DHT22;6592;47.484;9.726;2022-07-23T14:48:07;31.50;99.90
13052;DHT22;6592;47.484;9.726;2022-07-23T14:50:35;31.30;99.90
13052;DHT22;6592;47.484;9.726;2022-07-23T14:53:03;31.00;99.90
13052;DHT22;6592;47.484;9.726;2022-07-23T14:55:33;31.00;99.90
13052;DHT22;6592;47.484;9.726;2022-07-23T14:58:02;30.90;99.90
13052;DHT22;6592;47.484;9.726;2022-07-23T15:00:30;31.00;99.90
13052;DHT22;6592;47.484;9.726;2022-07-23T15:02:58;31.10;99.90
13052;DHT22;6592;47.484;9.726;2022-07-23T15:05:26;31.00;99.90
13052;DHT22;6592;47.484;9.726;2022-07-23T15:07:55;31.10;99.90
13052;DHT22;6592;47.484;9.726;2022-07-23T15:10:24;31.10;99.90
13052;DHT22;6592;47.484;9.726;2022-07-23T15:12:53;31.00;99.90
13052;DHT22;6592;47.484;9.726;2022-07-23T15:15:21;31.00;99.90
13052;DHT22;6592;47.484;9.726;2022-07-23T15:17:49;30.90;99.90
13052;DHT22;6592;47.484;9.726;2022-07-23T15:20:17;30.80;99.90
13052;DHT22;6592;47.484;9.726;2022-07-23T15:23:03;30.60;99.90
13052;DHT22;6592;47.484;9.726;2022-07-23T15:25:34;30.40;99.90
13052;DHT22;6592;47.484;9.726;2022-07-23T15:28:05;30.40;99.90
13052;DHT22;6592;47.484;9.726;2022-07-23T15:30:35;30.30;99.90
13052;DHT22;6592;47.484;9.726;2022-07-23T15:33:03;30.20;99.90
13052;DHT22;6592;47.484;9.726;2022-07-23T15:35:32;30.20;99.90
13052;DHT22;6592;47.484;9.726;2022-07-23T15:38:00;30.20;99.90
13052;DHT22;6592;47.484;9.726;2022-07-23T15:40:39;30.20;99.90
13052;DHT22;6592;47.484;9.726;2022-07-23T15:43:08;30.20;99.90
13052;DHT22;6592;47.484;9.726;2022-07-23T15:45:37;30.30;99.90
13052;DHT22;6592;47.484;9.726;2022-07-23T15:48:06;30.60;99.90
13052;DHT22;6592;47.484;9.726;2022-07-23T15:50:34;30.80;99.90
13052;DHT22;6592;47.484;9.726;2022-07-23T15:53:05;31.00;99.90
13052;DHT22;6592;47.484;9.726;2022-07-23T15:55:33;31.10;99.90
13052;DHT22;6592;47.484;9.726;2022-07-23T15:58:02;31.20;99.90
13052;DHT22;6592;47.484;9.726;2022-07-23T16:00:32;31.20;99.90
13052;DHT22;6592;47.484;9.726;2022-07-23T16:03:00;31.10;99.90
13052;DHT22;6592;47.484;9.726;2022-07-23T16:05:33;31.10;99.90
13052;DHT22;6592;47.484;9.726;2022-07-23T16:08:02;31.20;99.90
13052;DHT22;6592;47.484;9.726;2022-07-23T16:10:30;31.20;99.90